sensor_id;sensor_type;location;lat;lon;timestamp;temperature;humidity
6792;DHT22;3433;48.730;9.108;2022-12-18T00:00:16;-7.40;98.40
6792;DHT22;3433;48.730;9.108;2022-12-18T00:03:03;-7.50;98.40
6792;DHT22;3433;48.730;9.108;2022-12-18T00:05:51;-7.50;98.30
6792;DHT22;3433;48.730;9.108;2022-12-18T00:08:40;-7.50;98.30
6792;DHT22;3433;48.730;9.108;2022-12-18T00:11:29;-7.50;98.30
6792;DHT22;3433;48.730;9.108;2022-12-18T00:14:16;-7.40;98.40
6792;DHT22;3433;48.730;9.108;2022-12-18T00:17:04;-7.50;98.30
6792;DHT22;3433;48.730;9.108;2022-12-18T00:19:51;-7.50;98.30
6792;DHT22;3433;48.730;9.108;2022-12-18T00:22:38;-7.50;98.30
6792;DHT22;3433;48.730;9.108;2022-12-18T00:25:27;-7.50;98.50
6792;DHT22;3433;48.730;9.108;2022-12-18T00:28:14;-7.60;98.20
6792;DHT22;3433;48.730;9.108;2022-12-18T00:31:01;-7.60;98.20
6792;DHT22;3433;48.730;9.108;2022-12-18T00:33:49;-7.60;98.20
6792;DHT22;3433;48.730;9.108;2022-12-18T00:36:36;-7.60;98.20
6792;DHT22;3433;48.730;9.108;2022-12-18T00:39:23;-7.60;98.30
6792;DHT22;3433;48.730;9.108;2022-12-18T00:42:12;-7.60;98.30
6792;DHT22;3433;48.730;9.108;2022-12-18T00:45:17;-7.60;98.30
6792;DHT22;3433;48.730;9.108;2022-12-18T00:48:04;-7.60;98.20
6792;DHT22;3433;48.730;9.108;2022-12-18T00:50:52;-7.60;98.50
6792;DHT22;3433;48.730;9.108;2022-12-18T00:53:39;-7.60;98.20
6792;DHT22;3433;48.730;9.108;2022-12-18T00:56:27;-7.70;98.20
6792;DHT22;3433;48.730;9.108;2022-12-18T00:59:15;-7.70;98.20
6792;DHT22;3433;48.730;9.108;2022-12-18T01:02:03;-7.60;98.30
6792;DHT22;3433;48.730;9.108;2022-12-18T01:04:50;-7.70;98.20
6792;DHT22;3433;48.730;9.108;2022-12-18T01:07:37;-7.60;98.30
6792;DHT22;3433;48.730;9.108;2022-12-18T01:10:25;-7.70;98.20
6792;DHT22;3433;48.730;9.108;2022-12-18T01:13:13;-7.70;98.20
6792;DHT22;3433;48.730;9.108;2022-12-18T01:16:01;-7.70;98.20
6792;DHT22;3433;48.730;9.108;2022-12-18T01:18:51;-7.70;98.20
6792;DHT22;3433;48.730;9.108;2022-12-18T01:21:39;-7.70;98.20
6792;DHT22;3433;48.730;9.108;2022-12-18T01:24:26;-7.70;98.10
6792;DHT22;3433;48.730;9.108;2022-12-18T01:27:14;-7.70;98.20
6792;DHT22;3433;48.730;9.108;2022-12-18T01:30:01;-7.70;98.20
6792;DHT22;3433;48.730;9.108;2022-12-18T01:32:50;-7.80;98.20
6792;DHT22;3433;48.730;9.108;2022-12-18T01:35:41;-7.80;98.50
6792;DHT22;3433;48.730;9.108;2022-12-18T01:38:28;-7.80;98.20
6792;DHT22;3433;48.730;9.108;2022-12-18T01:41:17;-7.70;98.20
6792;DHT22;3433;48.730;9.108;2022-12-18T01:47:32;-7.80;98.20
6792;DHT22;3433;48.730;9.108;2022-12-18T01:50:23;-7.80;98.30
6792;DHT22;3433;48.730;9.108;2022-12-18T01:53:14;-7.80;98.30
6792;DHT22;3433;48.730;9.108;2022-12-18T01:56:02;-7.70;98.40
6792;DHT22;3433;48.730;9.108;2022-12-18T01:58:54;-7.70;98.50
6792;DHT22;3433;48.730;9.108;2022-12-18T02:01:41;-7.70;98.60
6792;DHT22;3433;48.730;9.108;2022-12-18T02:04:29;-7.60;98.60
6792;DHT22;3433;48.730;9.108;2022-12-18T02:07:24;-7.60;98.60
6792;DHT22;3433;48.730;9.108;2022-12-18T02:10:17;-7.50;98.70
6792;DHT22;3433;48.730;9.108;2022-12-18T02:13:12;-7.40;98.80
6792;DHT22;3433;48.730;9.108;2022-12-18T02:16:03;-7.40;98.90
6792;DHT22;3433;48.730;9.108;2022-12-18T02:18:56;-7.40;99.00
6792;DHT22;3433;48.730;9.108;2022-12-18T02:21:48;-7.30;99.10
6792;DHT22;3433;48.730;9.108;2022-12-18T02:24:54;-7.20;99.20
6792;DHT22;3433;48.730;9.108;2022-12-18T02:27:46;-7.20;99.90
6792;DHT22;3433;48.730;9.108;2022-12-18T02:30:35;-7.00;99.90
6792;DHT22;3433;48.730;9.108;2022-12-18T02:33:24;-6.70;99.90
6792;DHT22;3433;48.730;9.108;2022-12-18T02:36:13;-6.60;99.90
6792;DHT22;3433;48.730;9.108;2022-12-18T02:39:02;-6.50;99.90
6792;DHT22;3433;48.730;9.108;2022-12-18T02:41:50;-6.50;99.90
6792;DHT22;3433;48.730;9.108;2022-12-18T02:44:44;-6.50;99.90
6792;DHT22;3433;48.730;9.108;2022-12-18T02:47:34;-6.30;99.90
6792;DHT22;3433;48.730;9.108;2022-12-18T02:50:29;-6.10;99.90
6792;DHT22;3433;48.730;9.108;2022-12-18T02:53:21;-6.20;99.90
6792;DHT22;3433;48.730;9.108;2022-12-18T02:56:13;-6.10;99.90
6792;DHT22;3433;48.730;9.108;2022-12-18T02:59:07;-6.10;99.90
6792;DHT22;3433;48.730;9.108;2022-12-18T03:02:00;-6.10;99.90
6792;DHT22;3433;48.730;9.108;2022-12-18T03:04:51;-6.00;99.90
6792;DHT22;3433;48.730;9.108;2022-12-18T03:07:47;-6.00;99.90
6792;DHT22;3433;48.730;9.108;2022-12-18T03:10:43;-6.00;99.90
6792;DHT22;3433;48.730;9.108;2022-12-18T03:13:34;-6.10;99.90
6792;DHT22;3433;48.730;9.108;2022-12-18T03:16:25;-6.00;99.90
6792;DHT22;3433;48.730;9.108;2022-12-18T03:19:17;-6.00;99.90
6792;DHT22;3433;48.730;9.108;2022-12-18T03:22:07;-6.00;99.90
6792;DHT22;3433;48.730;9.108;2022-12-18T03:24:56;-5.90;99.90
6792;DHT22;3433;48.730;9.108;2022-12-18T03:27:47;-5.90;99.90
6792;DHT22;3433;48.730;9.108;2022-12-18T03:30:37;-5.80;99.90
6792;DHT22;3433;48.730;9.108;2022-12-18T03:33:30;-5.70;99.90
6792;DHT22;3433;48.730;9.108;2022-12-18T03:36:20;-5.70;99.90
6792;DHT22;3433;48.730;9.108;2022-12-18T03:39:08;-5.80;99.90
6792;DHT22;3433;48.730;9.108;2022-12-18T03:41:59;-5.80;99.90
6792;DHT22;3433;48.730;9.108;2022-12-18T03:44:54;-5.90;99.90
6792;DHT22;3433;48.730;9.108;2022-12-18T03:47:53;-5.90;99.90
6792;DHT22;3433;48.730;9.108;2022-12-18T03:50:48;-5.90;99.90
6792;DHT22;3433;48.730;9.108;2022-12-18T03:53:42;-5.90;99.90
6792;DHT22;3433;48.730;9.108;2022-12-18T03:56:36;-5.90;99.90
6792;DHT22;3433;48.730;9.108;2022-12-18T03:59:25;-5.80;99.90
6792;DHT22;3433;48.730;9.108;2022-12-18T04:02:14;-6.00;99.90
6792;DHT22;3433;48.730;9.108;2022-12-18T04:05:05;-6.00;99.90
6792;DHT22;3433;48.730;9.108;2022-12-18T04:07:54;-6.00;99.90
6792;DHT22;3433;48.730;9.108;2022-12-18T04:10:43;-6.00;99.90
6792;DHT22;3433;48.730;9.108;2022-12-18T04:13:33;-6.00;99.90
6792;DHT22;3433;48.730;9.108;2022-12-18T04:16:21;-6.10;99.90
6792;DHT22;3433;48.730;9.108;2022-12-18T04:19:08;-6.10;99.90
6792;DHT22;3433;48.730;9.108;2022-12-18T04:21:55;-6.10;99.90
6792;DHT22;3433;48.730;9.108;2022-12-18T04:24:42;-6.10;99.90
6792;DHT22;3433;48.730;9.108;2022-12-18T04:27:31;-6.20;99.90
6792;DHT22;3433;48.730;9.108;2022-12-18T04:30:18;-6.10;99.90
6792;DHT22;3433;48.730;9.108;2022-12-18T04:33:08;-6.20;99.90
6792;DHT22;3433;48.730;9.108;2022-12-18T04:35:55;-6.10;99.90
6792;DHT22;3433;48.730;9.108;2022-12-18T04:38:43;-6.10;99.90
6792;DHT22;3433;48.730;9.108;2022-12-18T04:41:30;-6.10;99.90
6792;DHT22;3433;48.730;9.108;2022-12-18T04:44:18;-6.10;99.90
6792;DHT22;3433;48.730;9.108;2022-12-18T04:47:06;-6.20;99.90
6792;DHT22;3433;48.730;9.108;2022-12-18T04:49:53;-6.20;99.90
6792;DHT22;3433;48.730;9.108;2022-12-18T04:52:40;-6.20;99.90
6792;DHT22;3433;48.730;9.108;2022-12-18T04:55:27;-6.20;99.90
6792;DHT22;3433;48.730;9.108;2022-12-18T04:58:15;-6.20;99.90
6792;DHT22;3433;48.730;9.108;2022-12-18T05:01:03;-6.30;99.90
6792;DHT22;3433;48.730;9.108;2022-12-18T05:03:51;-6.40;99.90
6792;DHT22;3433;48.730;9.108;2022-12-18T05:06:38;-6.60;99.90
6792;DHT22;3433;48.730;9.108;2022-12-18T05:09:25;-6.50;99.90
6792;DHT22;3433;48.730;9.108;2022-12-18T05:12:12;-6.60;99.90
6792;DHT22;3433;48.730;9.108;2022-12-18T05:15:00;-6.50;99.90
6792;DHT22;3433;48.730;9.108;2022-12-18T05:17:48;-6.50;99.90
6792;DHT22;3433;48.730;9.108;2022-12-18T05:20:35;-6.60;99.90
6792;DHT22;3433;48.730;9.108;2022-12-18T05:23:23;-6.70;99.90
6792;DHT22;3433;48.730;9.108;2022-12-18T05:26:15;-6.50;99.90
6792;DHT22;3433;48.730;9.108;2022-12-18T05:29:02;-6.60;99.90
6792;DHT22;3433;48.730;9.108;2022-12-18T05:31:49;-6.70;99.90
6792;DHT22;3433;48.730;9.108;2022-12-18T05:34:38;-6.70;99.90
6792;DHT22;3433;48.730;9.108;2022-12-18T05:37:25;-6.50;99.90
6792;DHT22;3433;48.730;9.108;2022-12-18T05:40:12;-6.40;99.90
6792;DHT22;3433;48.730;9.108;2022-12-18T05:42:59;-6.40;99.90
6792;DHT22;3433;48.730;9.108;2022-12-18T05:45:48;-6.40;99.90
6792;DHT22;3433;48.730;9.108;2022-12-18T05:48:35;-6.40;99.90
6792;DHT22;3433;48.730;9.108;2022-12-18T05:51:24;-6.40;99.90
6792;DHT22;3433;48.730;9.108;2022-12-18T05:54:11;-6.40;99.90
6792;DHT22;3433;48.730;9.108;2022-12-18T05:56:58;-6.40;99.90
6792;DHT22;3433;48.730;9.108;2022-12-18T05:59:45;-6.40;99.90
6792;DHT22;3433;48.730;9.108;2022-12-18T06:02:33;-6.50;99.90
6792;DHT22;3433;48.730;9.108;2022-12-18T06:05:20;-6.60;99.90
6792;DHT22;3433;48.730;9.108;2022-12-18T06:08:09;-6.70;99.90
6792;DHT22;3433;48.730;9.108;2022-12-18T06:10:57;-6.70;99.90
6792;DHT22;3433;48.730;9.108;2022-12-18T06:13:44;-6.50;99.90
6792;DHT22;3433;48.730;9.108;2022-12-18T06:16:32;-6.50;99.90
6792;DHT22;3433;48.730;9.108;2022-12-18T06:19:19;-6.50;99.90
6792;DHT22;3433;48.730;9.108;2022-12-18T06:22:06;-6.50;99.90
6792;DHT22;3433;48.730;9.108;2022-12-18T06:24:55;-6.60;99.90
6792;DHT22;3433;48.730;9.108;2022-12-18T06:27:42;-6.70;99.80
6792;DHT22;3433;48.730;9.108;2022-12-18T06:30:30;-6.70;99.80
6792;DHT22;3433;48.730;9.108;2022-12-18T06:33:17;-6.80;99.80
6792;DHT22;3433;48.730;9.108;2022-12-18T06:36:07;-6.80;99.70
6792;DHT22;3433;48.730;9.108;2022-12-18T06:38:54;-6.90;99.60
6792;DHT22;3433;48.730;9.108;2022-12-18T06:41:44;-6.90;99.40
6792;DHT22;3433;48.730;9.108;2022-12-18T06:44:31;-7.00;99.30
6792;DHT22;3433;48.730;9.108;2022-12-18T06:47:18;-7.00;99.20
6792;DHT22;3433;48.730;9.108;2022-12-18T06:50:06;-7.10;99.20
6792;DHT22;3433;48.730;9.108;2022-12-18T06:52:54;-7.20;99.10
6792;DHT22;3433;48.730;9.108;2022-12-18T06:55:41;-7.20;99.30
6792;DHT22;3433;48.730;9.108;2022-12-18T06:58:30;-7.30;99.40
6792;DHT22;3433;48.730;9.108;2022-12-18T07:01:17;-7.30;99.40
6792;DHT22;3433;48.730;9.108;2022-12-18T07:04:04;-7.30;99.50
6792;DHT22;3433;48.730;9.108;2022-12-18T07:06:51;-7.30;99.50
6792;DHT22;3433;48.730;9.108;2022-12-18T07:09:38;-7.30;99.50
6792;DHT22;3433;48.730;9.108;2022-12-18T07:12:26;-7.30;99.50
6792;DHT22;3433;48.730;9.108;2022-12-18T07:15:15;-7.20;99.60
6792;DHT22;3433;48.730;9.108;2022-12-18T07:18:03;-7.20;99.60
6792;DHT22;3433;48.730;9.108;2022-12-18T07:20:50;-7.20;99.60
6792;DHT22;3433;48.730;9.108;2022-12-18T07:23:37;-7.20;99.60
6792;DHT22;3433;48.730;9.108;2022-12-18T07:26:24;-7.20;99.60
6792;DHT22;3433;48.730;9.108;2022-12-18T07:29:12;-7.20;99.70
6792;DHT22;3433;48.730;9.108;2022-12-18T07:32:01;-7.10;99.70
6792;DHT22;3433;48.730;9.108;2022-12-18T07:34:48;-7.10;99.90
6792;DHT22;3433;48.730;9.108;2022-12-18T07:37:35;-7.10;99.90
6792;DHT22;3433;48.730;9.108;2022-12-18T07:40:23;-7.00;99.90
6792;DHT22;3433;48.730;9.108;2022-12-18T07:43:10;-6.90;99.90
6792;DHT22;3433;48.730;9.108;2022-12-18T07:45:57;-6.80;99.90
6792;DHT22;3433;48.730;9.108;2022-12-18T07:48:46;-6.60;99.90
6792;DHT22;3433;48.730;9.108;2022-12-18T07:51:33;-6.50;99.90
6792;DHT22;3433;48.730;9.108;2022-12-18T07:54:20;-6.40;99.90
6792;DHT22;3433;48.730;9.108;2022-12-18T07:57:09;-6.20;99.90
6792;DHT22;3433;48.730;9.108;2022-12-18T07:59:56;-6.10;99.90
6792;DHT22;3433;48.730;9.108;2022-12-18T08:02:43;-6.00;99.90
6792;DHT22;3433;48.730;9.108;2022-12-18T08:05:31;-5.90;99.90
6792;DHT22;3433;48.730;9.108;2022-12-18T08:08:19;-5.90;99.90
6792;DHT22;3433;48.730;9.108;2022-12-18T08:11:06;-5.70;99.90
6792;DHT22;3433;48.730;9.108;2022-12-18T08:13:53;-5.60;99.90
6792;DHT22;3433;48.730;9.108;2022-12-18T08:16:41;-5.40;99.90
6792;DHT22;3433;48.730;9.108;2022-12-18T08:19:28;-5.30;99.90
6792;DHT22;3433;48.730;9.108;2022-12-18T08:22:17;-5.20;99.90
6792;DHT22;3433;48.730;9.108;2022-12-18T08:25:05;-5.10;99.90
6792;DHT22;3433;48.730;9.108;2022-12-18T08:27:52;-5.00;99.90
6792;DHT22;3433;48.730;9.108;2022-12-18T08:30:40;-4.90;99.90
6792;DHT22;3433;48.730;9.108;2022-12-18T08:33:28;-4.80;99.90
6792;DHT22;3433;48.730;9.108;2022-12-18T08:36:15;-4.80;99.90
6792;DHT22;3433;48.730;9.108;2022-12-18T08:39:04;-4.70;99.90
6792;DHT22;3433;48.730;9.108;2022-12-18T08:41:51;-4.50;99.90
6792;DHT22;3433;48.730;9.108;2022-12-18T08:44:52;-4.30;99.90
6792;DHT22;3433;48.730;9.108;2022-12-18T08:47:40;-4.10;99.90
6792;DHT22;3433;48.730;9.108;2022-12-18T08:50:27;-4.00;99.90
6792;DHT22;3433;48.730;9.108;2022-12-18T08:53:14;-3.80;99.90
6792;DHT22;3433;48.730;9.108;2022-12-18T08:56:03;-3.50;99.90
6792;DHT22;3433;48.730;9.108;2022-12-18T08:58:52;-3.40;99.90
6792;DHT22;3433;48.730;9.108;2022-12-18T09:01:39;-3.30;99.90
6792;DHT22;3433;48.730;9.108;2022-12-18T09:04:27;-3.00;99.90
6792;DHT22;3433;48.730;9.108;2022-12-18T09:07:14;-3.00;99.90
6792;DHT22;3433;48.730;9.108;2022-12-18T09:10:01;-3.00;99.90
6792;DHT22;3433;48.730;9.108;2022-12-18T09:12:50;-2.80;99.90
6792;DHT22;3433;48.730;9.108;2022-12-18T09:15:40;-2.60;99.90
6792;DHT22;3433;48.730;9.108;2022-12-18T09:18:27;-2.60;99.90
6792;DHT22;3433;48.730;9.108;2022-12-18T09:21:17;-2.60;99.90
6792;DHT22;3433;48.730;9.108;2022-12-18T09:24:05;-2.50;99.90
6792;DHT22;3433;48.730;9.108;2022-12-18T09:26:53;-2.20;99.90
6792;DHT22;3433;48.730;9.108;2022-12-18T09:29:42;-2.00;99.90
6792;DHT22;3433;48.730;9.108;2022-12-18T09:32:30;-1.90;99.90
6792;DHT22;3433;48.730;9.108;2022-12-18T09:35:17;-1.80;99.90
6792;DHT22;3433;48.730;9.108;2022-12-18T09:38:04;-1.70;99.90
6792;DHT22;3433;48.730;9.108;2022-12-18T09:40:53;-1.80;99.90
6792;DHT22;3433;48.730;9.108;2022-12-18T09:43:48;-1.40;99.90
6792;DHT22;3433;48.730;9.108;2022-12-18T09:46:43;-1.20;99.90
6792;DHT22;3433;48.730;9.108;2022-12-18T09:49:34;-1.00;99.90
6792;DHT22;3433;48.730;9.108;2022-12-18T09:52:26;-1.00;99.90
6792;DHT22;3433;48.730;9.108;2022-12-18T09:55:24;-1.00;99.90
6792;DHT22;3433;48.730;9.108;2022-12-18T09:58:16;-0.70;99.90
6792;DHT22;3433;48.730;9.108;2022-12-18T10:01:10;-0.20;99.90
6792;DHT22;3433;48.730;9.108;2022-12-18T10:04:00;-0.20;99.90
6792;DHT22;3433;48.730;9.108;2022-12-18T10:06:52;-0.10;99.90
6792;DHT22;3433;48.730;9.108;2022-12-18T10:09:45;0.00;99.90
6792;DHT22;3433;48.730;9.108;2022-12-18T10:12:42;0.10;99.90
6792;DHT22;3433;48.730;9.108;2022-12-18T10:15:38;0.20;99.90
6792;DHT22;3433;48.730;9.108;2022-12-18T10:18:36;0.30;99.90
6792;DHT22;3433;48.730;9.108;2022-12-18T10:21:32;0.20;99.90
6792;DHT22;3433;48.730;9.108;2022-12-18T10:24:26;0.20;99.90
6792;DHT22;3433;48.730;9.108;2022-12-18T10:27:16;0.30;99.90
6792;DHT22;3433;48.730;9.108;2022-12-18T10:30:12;0.50;99.90
6792;DHT22;3433;48.730;9.108;2022-12-18T10:33:01;0.50;99.90
6792;DHT22;3433;48.730;9.108;2022-12-18T10:35:50;0.50;99.90
6792;DHT22;3433;48.730;9.108;2022-12-18T10:38:39;0.60;99.90
6792;DHT22;3433;48.730;9.108;2022-12-18T10:41:27;0.80;99.90
6792;DHT22;3433;48.730;9.108;2022-12-18T10:44:18;0.90;99.90
6792;DHT22;3433;48.730;9.108;2022-12-18T10:47:12;1.10;99.70
6792;DHT22;3433;48.730;9.108;2022-12-18T10:50:01;1.00;99.70
6792;DHT22;3433;48.730;9.108;2022-12-18T10:52:54;1.40;99.90
6792;DHT22;3433;48.730;9.108;2022-12-18T10:55:45;1.30;99.60
6792;DHT22;3433;48.730;9.108;2022-12-18T10:58:34;1.50;99.60
6792;DHT22;3433;48.730;9.108;2022-12-18T11:01:22;1.70;99.80
6792;DHT22;3433;48.730;9.108;2022-12-18T11:04:09;1.70;99.20
6792;DHT22;3433;48.730;9.108;2022-12-18T11:06:59;1.50;99.20
6792;DHT22;3433;48.730;9.108;2022-12-18T11:09:59;1.70;99.20
6792;DHT22;3433;48.730;9.108;2022-12-18T11:12:52;2.10;99.60
6792;DHT22;3433;48.730;9.108;2022-12-18T11:15:40;2.10;99.90
6792;DHT22;3433;48.730;9.108;2022-12-18T11:18:29;2.30;99.90
6792;DHT22;3433;48.730;9.108;2022-12-18T11:21:17;2.50;99.80
6792;DHT22;3433;48.730;9.108;2022-12-18T11:24:06;2.70;99.80
6792;DHT22;3433;48.730;9.108;2022-12-18T11:27:03;2.80;99.00
6792;DHT22;3433;48.730;9.108;2022-12-18T11:29:52;3.00;99.50
6792;DHT22;3433;48.730;9.108;2022-12-18T11:32:41;2.80;98.40
6792;DHT22;3433;48.730;9.108;2022-12-18T11:35:37;2.80;98.00
6792;DHT22;3433;48.730;9.108;2022-12-18T11:38:28;2.60;98.70
6792;DHT22;3433;48.730;9.108;2022-12-18T11:41:23;2.80;98.40
6792;DHT22;3433;48.730;9.108;2022-12-18T11:44:38;3.10;99.60
6792;DHT22;3433;48.730;9.108;2022-12-18T11:47:31;3.00;96.90
6792;DHT22;3433;48.730;9.108;2022-12-18T11:50:24;3.20;97.50
6792;DHT22;3433;48.730;9.108;2022-12-18T11:53:12;3.50;98.40
6792;DHT22;3433;48.730;9.108;2022-12-18T11:56:05;3.60;99.20
6792;DHT22;3433;48.730;9.108;2022-12-18T11:59:00;3.60;97.40
6792;DHT22;3433;48.730;9.108;2022-12-18T12:01:55;4.10;99.40
6792;DHT22;3433;48.730;9.108;2022-12-18T12:05:00;4.00;97.10
6792;DHT22;3433;48.730;9.108;2022-12-18T12:07:56;4.10;97.80
6792;DHT22;3433;48.730;9.108;2022-12-18T12:10:52;3.90;97.20
6792;DHT22;3433;48.730;9.108;2022-12-18T12:13:50;3.80;95.90
6792;DHT22;3433;48.730;9.108;2022-12-18T12:16:46;3.80;98.20
6792;DHT22;3433;48.730;9.108;2022-12-18T12:19:43;4.70;99.00
6792;DHT22;3433;48.730;9.108;2022-12-18T12:22:39;4.80;96.80
6792;DHT22;3433;48.730;9.108;2022-12-18T12:25:35;4.20;96.50
6792;DHT22;3433;48.730;9.108;2022-12-18T12:28:42;4.00;97.40
6792;DHT22;3433;48.730;9.108;2022-12-18T12:31:47;4.20;97.10
6792;DHT22;3433;48.730;9.108;2022-12-18T12:34:47;4.20;98.00
6792;DHT22;3433;48.730;9.108;2022-12-18T12:37:46;4.10;97.50
6792;DHT22;3433;48.730;9.108;2022-12-18T12:40:36;4.00;97.80
6792;DHT22;3433;48.730;9.108;2022-12-18T12:43:33;3.90;97.70
6792;DHT22;3433;48.730;9.108;2022-12-18T12:46:22;3.80;97.90
6792;DHT22;3433;48.730;9.108;2022-12-18T12:49:13;3.80;98.10
6792;DHT22;3433;48.730;9.108;2022-12-18T12:52:06;3.80;97.90
6792;DHT22;3433;48.730;9.108;2022-12-18T12:54:56;3.70;97.20
6792;DHT22;3433;48.730;9.108;2022-12-18T12:57:48;3.30;97.10
6792;DHT22;3433;48.730;9.108;2022-12-18T13:00:46;3.30;98.00
6792;DHT22;3433;48.730;9.108;2022-12-18T13:03:46;3.50;98.40
6792;DHT22;3433;48.730;9.108;2022-12-18T13:06:42;3.50;98.00
6792;DHT22;3433;48.730;9.108;2022-12-18T13:09:31;3.70;98.00
6792;DHT22;3433;48.730;9.108;2022-12-18T13:12:20;3.80;98.70
6792;DHT22;3433;48.730;9.108;2022-12-18T13:15:28;3.90;98.50
6792;DHT22;3433;48.730;9.108;2022-12-18T13:18:20;4.00;98.70
6792;DHT22;3433;48.730;9.108;2022-12-18T13:21:19;3.90;98.20
6792;DHT22;3433;48.730;9.108;2022-12-18T13:24:15;3.80;98.40
6792;DHT22;3433;48.730;9.108;2022-12-18T13:30:54;4.40;99.90
6792;DHT22;3433;48.730;9.108;2022-12-18T13:33:43;4.40;99.60
6792;DHT22;3433;48.730;9.108;2022-12-18T13:36:32;4.20;99.60
6792;DHT22;3433;48.730;9.108;2022-12-18T13:39:25;3.90;98.80
6792;DHT22;3433;48.730;9.108;2022-12-18T13:42:39;3.50;98.00
6792;DHT22;3433;48.730;9.108;2022-12-18T13:45:46;3.50;99.90
6792;DHT22;3433;48.730;9.108;2022-12-18T13:48:37;3.30;99.90
6792;DHT22;3433;48.730;9.108;2022-12-18T13:51:26;3.40;99.90
6792;DHT22;3433;48.730;9.108;2022-12-18T13:54:19;3.40;99.50
6792;DHT22;3433;48.730;9.108;2022-12-18T13:57:25;3.30;99.30
6792;DHT22;3433;48.730;9.108;2022-12-18T14:00:27;2.80;97.70
6792;DHT22;3433;48.730;9.108;2022-12-18T14:03:19;2.70;98.00
6792;DHT22;3433;48.730;9.108;2022-12-18T14:06:08;2.40;97.30
6792;DHT22;3433;48.730;9.108;2022-12-18T14:08:56;1.60;97.10
6792;DHT22;3433;48.730;9.108;2022-12-18T14:11:47;1.50;98.40
6792;DHT22;3433;48.730;9.108;2022-12-18T14:14:34;1.50;98.30
6792;DHT22;3433;48.730;9.108;2022-12-18T14:17:23;1.30;98.40
6792;DHT22;3433;48.730;9.108;2022-12-18T14:20:13;1.20;98.40
6792;DHT22;3433;48.730;9.108;2022-12-18T14:23:02;1.10;98.50
6792;DHT22;3433;48.730;9.108;2022-12-18T14:25:49;1.10;98.50
6792;DHT22;3433;48.730;9.108;2022-12-18T14:28:43;1.00;98.40
6792;DHT22;3433;48.730;9.108;2022-12-18T14:31:31;1.00;98.80
6792;DHT22;3433;48.730;9.108;2022-12-18T14:34:18;1.00;98.90
6792;DHT22;3433;48.730;9.108;2022-12-18T14:37:09;1.00;98.70
6792;DHT22;3433;48.730;9.108;2022-12-18T14:39:59;0.90;98.70
6792;DHT22;3433;48.730;9.108;2022-12-18T14:42:48;0.70;98.70
6792;DHT22;3433;48.730;9.108;2022-12-18T14:45:39;0.60;98.50
6792;DHT22;3433;48.730;9.108;2022-12-18T14:48:37;0.50;98.80
6792;DHT22;3433;48.730;9.108;2022-12-18T14:51:29;0.30;98.80
6792;DHT22;3433;48.730;9.108;2022-12-18T14:54:18;0.20;99.10
6792;DHT22;3433;48.730;9.108;2022-12-18T14:57:20;0.10;99.10
6792;DHT22;3433;48.730;9.108;2022-12-18T15:00:16;0.00;99.10
6792;DHT22;3433;48.730;9.108;2022-12-18T15:03:08;0.00;99.20
6792;DHT22;3433;48.730;9.108;2022-12-18T15:05:55;-0.20;99.30
6792;DHT22;3433;48.730;9.108;2022-12-18T15:08:42;-0.30;99.40
6792;DHT22;3433;48.730;9.108;2022-12-18T15:11:42;-0.30;99.50
6792;DHT22;3433;48.730;9.108;2022-12-18T15:14:39;-0.40;99.60
6792;DHT22;3433;48.730;9.108;2022-12-18T15:17:27;-0.40;99.60
6792;DHT22;3433;48.730;9.108;2022-12-18T15:20:15;-0.60;99.60
6792;DHT22;3433;48.730;9.108;2022-12-18T15:23:02;-0.70;99.80
6792;DHT22;3433;48.730;9.108;2022-12-18T15:25:59;-0.70;99.90
6792;DHT22;3433;48.730;9.108;2022-12-18T15:28:47;-0.80;99.90
6792;DHT22;3433;48.730;9.108;2022-12-18T15:31:37;-1.10;99.90
6792;DHT22;3433;48.730;9.108;2022-12-18T15:34:24;-1.00;99.90
6792;DHT22;3433;48.730;9.108;2022-12-18T15:37:12;-0.90;99.90
6792;DHT22;3433;48.730;9.108;2022-12-18T15:39:59;-1.10;99.90
6792;DHT22;3433;48.730;9.108;2022-12-18T15:42:48;-1.10;99.90
6792;DHT22;3433;48.730;9.108;2022-12-18T15:45:53;-1.10;99.90
6792;DHT22;3433;48.730;9.108;2022-12-18T15:48:43;-1.00;99.90
6792;DHT22;3433;48.730;9.108;2022-12-18T15:51:33;-1.20;99.90
6792;DHT22;3433;48.730;9.108;2022-12-18T15:54:21;-1.20;99.90
6792;DHT22;3433;48.730;9.108;2022-12-18T15:57:28;-1.30;99.90
6792;DHT22;3433;48.730;9.108;2022-12-18T16:00:15;-1.20;99.90
6792;DHT22;3433;48.730;9.108;2022-12-18T16:03:03;-1.30;99.90
6792;DHT22;3433;48.730;9.108;2022-12-18T16:05:51;-1.40;99.90
6792;DHT22;3433;48.730;9.108;2022-12-18T16:08:38;-1.50;99.90
6792;DHT22;3433;48.730;9.108;2022-12-18T16:11:27;-1.40;99.90
6792;DHT22;3433;48.730;9.108;2022-12-18T16:14:29;-1.40;99.90
6792;DHT22;3433;48.730;9.108;2022-12-18T16:17:16;-1.40;99.90
6792;DHT22;3433;48.730;9.108;2022-12-18T16:20:05;-1.50;99.90
6792;DHT22;3433;48.730;9.108;2022-12-18T16:22:53;-1.40;99.90
6792;DHT22;3433;48.730;9.108;2022-12-18T16:25:41;-1.50;99.90
6792;DHT22;3433;48.730;9.108;2022-12-18T16:28:28;-1.50;99.90
6792;DHT22;3433;48.730;9.108;2022-12-18T16:31:15;-1.50;99.90
6792;DHT22;3433;48.730;9.108;2022-12-18T16:34:19;-1.50;99.90
6792;DHT22;3433;48.730;9.108;2022-12-18T16:37:09;-1.50;99.90
6792;DHT22;3433;48.730;9.108;2022-12-18T16:39:57;-1.40;99.90
6792;DHT22;3433;48.730;9.108;2022-12-18T16:42:45;-1.50;99.90
6792;DHT22;3433;48.730;9.108;2022-12-18T16:45:33;-1.50;99.90
6792;DHT22;3433;48.730;9.108;2022-12-18T16:48:20;-1.60;99.90
6792;DHT22;3433;48.730;9.108;2022-12-18T16:51:07;-1.60;99.90
6792;DHT22;3433;48.730;9.108;2022-12-18T16:53:54;-1.70;99.90
6792;DHT22;3433;48.730;9.108;2022-12-18T16:56:43;-1.70;99.90
6792;DHT22;3433;48.730;9.108;2022-12-18T16:59:35;-1.80;99.90
6792;DHT22;3433;48.730;9.108;2022-12-18T17:02:24;-1.80;99.90
6792;DHT22;3433;48.730;9.108;2022-12-18T17:05:12;-1.70;99.90
6792;DHT22;3433;48.730;9.108;2022-12-18T17:07:59;-1.80;99.90
6792;DHT22;3433;48.730;9.108;2022-12-18T17:10:46;-1.90;99.90
6792;DHT22;3433;48.730;9.108;2022-12-18T17:13:35;-1.90;99.90
6792;DHT22;3433;48.730;9.108;2022-12-18T17:16:23;-1.80;99.90
6792;DHT22;3433;48.730;9.108;2022-12-18T17:19:11;-1.90;99.90
6792;DHT22;3433;48.730;9.108;2022-12-18T17:21:59;-1.90;99.90
6792;DHT22;3433;48.730;9.108;2022-12-18T17:24:46;-1.90;99.90
6792;DHT22;3433;48.730;9.108;2022-12-18T17:27:33;-1.90;99.90
6792;DHT22;3433;48.730;9.108;2022-12-18T17:30:22;-1.80;99.90
6792;DHT22;3433;48.730;9.108;2022-12-18T17:33:09;-1.80;99.90
6792;DHT22;3433;48.730;9.108;2022-12-18T17:35:57;-1.80;99.90
6792;DHT22;3433;48.730;9.108;2022-12-18T17:38:49;-1.90;99.90
6792;DHT22;3433;48.730;9.108;2022-12-18T17:41:37;-1.90;99.90
6792;DHT22;3433;48.730;9.108;2022-12-18T17:44:24;-1.90;99.90
6792;DHT22;3433;48.730;9.108;2022-12-18T17:47:13;-1.90;99.90
6792;DHT22;3433;48.730;9.108;2022-12-18T17:50:00;-1.90;99.90
6792;DHT22;3433;48.730;9.108;2022-12-18T17:52:47;-1.90;99.90
6792;DHT22;3433;48.730;9.108;2022-12-18T17:55:34;-1.90;99.90
6792;DHT22;3433;48.730;9.108;2022-12-18T17:58:22;-1.90;99.90
6792;DHT22;3433;48.730;9.108;2022-12-18T18:01:11;-1.80;99.90
6792;DHT22;3433;48.730;9.108;2022-12-18T18:04:02;-1.90;99.90
6792;DHT22;3433;48.730;9.108;2022-12-18T18:06:49;-1.90;99.90
6792;DHT22;3433;48.730;9.108;2022-12-18T18:09:37;-1.90;99.90
6792;DHT22;3433;48.730;9.108;2022-12-18T18:12:24;-1.90;99.90
6792;DHT22;3433;48.730;9.108;2022-12-18T18:15:29;-1.90;99.90
6792;DHT22;3433;48.730;9.108;2022-12-18T18:18:16;-1.90;99.90
6792;DHT22;3433;48.730;9.108;2022-12-18T18:21:06;-1.90;99.90
6792;DHT22;3433;48.730;9.108;2022-12-18T18:23:54;-1.90;99.90
6792;DHT22;3433;48.730;9.108;2022-12-18T18:26:41;-1.80;99.90
6792;DHT22;3433;48.730;9.108;2022-12-18T18:29:29;-1.80;99.90
6792;DHT22;3433;48.730;9.108;2022-12-18T18:32:16;-1.80;99.90
6792;DHT22;3433;48.730;9.108;2022-12-18T18:35:04;-1.80;99.90
6792;DHT22;3433;48.730;9.108;2022-12-18T18:37:53;-1.70;99.90
6792;DHT22;3433;48.730;9.108;2022-12-18T18:40:40;-1.70;99.90